<?xml version="1.0" encoding="UTF-8" standalone="no" ?>
<gpx xmlns="http://www.topografix.com/GPX/1/1" xmlns:xsi="http://www.w3.org/2001/XMLSchema-instance" xsi:schemaLocation="http://www.topografix.com/GPX/1/1 http://www.topografix.com/GPX/1/1/gpx.xsd" version="1.1" creator="VisuGPX - https://www.visugpx.com">
  <metadata>
    <name>LaBala0316</name>
    <desc><![CDATA[sortie de chantier, remise à l'eau, préparation, tour de Groix
avec Johan et Gauvain]]></desc>
  </metadata>
  <trk>
    <name><![CDATA[Tracé actuel: 28 AVR 2016 15:18]]></name>
    <trkseg>
      <trkpt lat="47.79756" lon="-3.27737">
        <ele>2.06</ele>
        <time>2016-04-28T13:18:38Z</time>
      </trkpt>
      <trkpt lat="47.79754" lon="-3.27755">
        <ele>2.06</ele>
        <time>2016-04-28T13:18:52Z</time>
      </trkpt>
      <trkpt lat="47.79751" lon="-3.2776">
        <ele>2.06</ele>
        <time>2016-04-28T13:18:56Z</time>
      </trkpt>
      <trkpt lat="47.79743" lon="-3.2777">
        <ele>2.54</ele>
        <time>2016-04-28T13:19:06Z</time>
      </trkpt>
      <trkpt lat="47.7973" lon="-3.27768">
        <ele>2.54</ele>
        <time>2016-04-28T13:19:18Z</time>
      </trkpt>
      <trkpt lat="47.79727" lon="-3.27768">
        <ele>2.54</ele>
        <time>2016-04-28T13:19:22Z</time>
      </trkpt>
      <trkpt lat="47.79716" lon="-3.27753">
        <ele>1.58</ele>
        <time>2016-04-28T13:19:35Z</time>
      </trkpt>
      <trkpt lat="47.79711" lon="-3.27751">
        <ele>0.62</ele>
        <time>2016-04-28T13:19:39Z</time>
      </trkpt>
      <trkpt lat="47.79696" lon="-3.27743">
        <ele>-0.34</ele>
        <time>2016-04-28T13:19:54Z</time>
      </trkpt>
      <trkpt lat="47.79686" lon="-3.27738">
        <ele>1.58</ele>
        <time>2016-04-28T13:20:07Z</time>
      </trkpt>
      <trkpt lat="47.79674" lon="-3.27731">
        <ele>3.02</ele>
        <time>2016-04-28T13:20:23Z</time>
      </trkpt>
      <trkpt lat="47.7967" lon="-3.27729">
        <ele>3.02</ele>
        <time>2016-04-28T13:20:27Z</time>
      </trkpt>
      <trkpt lat="47.79666" lon="-3.27728">
        <ele>3.02</ele>
        <time>2016-04-28T13:20:31Z</time>
      </trkpt>
      <trkpt lat="47.7966" lon="-3.27724">
        <ele>3.5</ele>
        <time>2016-04-28T13:20:47Z</time>
      </trkpt>
      <trkpt lat="47.79658" lon="-3.27722">
        <ele>4.46</ele>
        <time>2016-04-28T13:21:05Z</time>
      </trkpt>
      <trkpt lat="47.79658" lon="-3.27723">
        <ele>3.98</ele>
        <time>2016-04-28T13:21:16Z</time>
      </trkpt>
      <trkpt lat="47.79652" lon="-3.27721">
        <ele>3.5</ele>
        <time>2016-04-28T13:21:22Z</time>
      </trkpt>
      <trkpt lat="47.79645" lon="-3.27715">
        <ele>3.98</ele>
        <time>2016-04-28T13:21:30Z</time>
      </trkpt>
      <trkpt lat="47.7964" lon="-3.27712">
        <ele>3.98</ele>
        <time>2016-04-28T13:21:47Z</time>
      </trkpt>
      <trkpt lat="47.79638" lon="-3.27711">
        <ele>5.42</ele>
        <time>2016-04-28T13:22:14Z</time>
      </trkpt>
      <trkpt lat="47.79627" lon="-3.27704">
        <ele>5.91</ele>
        <time>2016-04-28T13:22:27Z</time>
      </trkpt>
      <trkpt lat="47.79625" lon="-3.27704">
        <ele>5.42</ele>
        <time>2016-04-28T13:22:29Z</time>
      </trkpt>
      <trkpt lat="47.79614" lon="-3.27696">
        <ele>5.42</ele>
        <time>2016-04-28T13:22:41Z</time>
      </trkpt>
      <trkpt lat="47.79595" lon="-3.27687">
        <ele>3.5</ele>
        <time>2016-04-28T13:22:57Z</time>
      </trkpt>
      <trkpt lat="47.79576" lon="-3.27682">
        <ele>3.02</ele>
        <time>2016-04-28T13:23:16Z</time>
      </trkpt>
      <trkpt lat="47.79569" lon="-3.27681">
        <ele>1.1</ele>
        <time>2016-04-28T13:23:22Z</time>
      </trkpt>
      <trkpt lat="47.79562" lon="-3.27682">
        <ele>0.14</ele>
        <time>2016-04-28T13:23:28Z</time>
      </trkpt>
      <trkpt lat="47.79554" lon="-3.27681">
        <ele>1.1</ele>
        <time>2016-04-28T13:23:34Z</time>
      </trkpt>
      <trkpt lat="47.79545" lon="-3.2768">
        <ele>-0.34</ele>
        <time>2016-04-28T13:23:43Z</time>
      </trkpt>
      <trkpt lat="47.79535" lon="-3.27681">
        <ele>-0.82</ele>
        <time>2016-04-28T13:23:54Z</time>
      </trkpt>
      <trkpt lat="47.79525" lon="-3.27686">
        <ele>-1.79</ele>
        <time>2016-04-28T13:24:04Z</time>
      </trkpt>
      <trkpt lat="47.79507" lon="-3.27697">
        <ele>-2.27</ele>
        <time>2016-04-28T13:24:20Z</time>
      </trkpt>
      <trkpt lat="47.79499" lon="-3.277">
        <ele>-1.79</ele>
        <time>2016-04-28T13:24:27Z</time>
      </trkpt>
      <trkpt lat="47.79482" lon="-3.27721">
        <ele>0.14</ele>
        <time>2016-04-28T13:24:43Z</time>
      </trkpt>
      <trkpt lat="47.79473" lon="-3.27745">
        <ele>2.06</ele>
        <time>2016-04-28T13:25:00Z</time>
      </trkpt>
      <trkpt lat="47.79475" lon="-3.2776">
        <ele>2.06</ele>
        <time>2016-04-28T13:25:10Z</time>
      </trkpt>
      <trkpt lat="47.7948" lon="-3.27766">
        <ele>0.62</ele>
        <time>2016-04-28T13:25:17Z</time>
      </trkpt>
      <trkpt lat="47.79482" lon="-3.27775">
        <ele>0.62</ele>
        <time>2016-04-28T13:25:26Z</time>
      </trkpt>
      <trkpt lat="47.79476" lon="-3.27778">
        <ele>1.1</ele>
        <time>2016-04-28T13:25:39Z</time>
      </trkpt>
      <trkpt lat="47.79478" lon="-3.27782">
        <ele>-5.15</ele>
        <time>2016-04-28T13:26:00Z</time>
      </trkpt>
      <trkpt lat="47.79477" lon="-3.27786">
        <ele>-9.48</ele>
        <time>2016-04-28T13:26:10Z</time>
      </trkpt>
      <trkpt lat="47.79473" lon="-3.27785">
        <ele>-17.17</ele>
        <time>2016-04-28T13:26:29Z</time>
      </trkpt>
      <trkpt lat="47.7947" lon="-3.2778">
        <ele>-15.72</ele>
        <time>2016-04-28T13:26:48Z</time>
      </trkpt>
      <trkpt lat="47.79468" lon="-3.27776">
        <ele>-14.76</ele>
        <time>2016-04-28T13:27:14Z</time>
      </trkpt>
      <trkpt lat="47.79469" lon="-3.27775">
        <ele>-14.28</ele>
        <time>2016-04-28T13:27:36Z</time>
      </trkpt>
      <trkpt lat="47.79468" lon="-3.27777">
        <ele>-11.4</ele>
        <time>2016-04-28T13:28:00Z</time>
      </trkpt>
      <trkpt lat="47.79468" lon="-3.27776">
        <ele>-9.96</ele>
        <time>2016-04-28T13:28:25Z</time>
      </trkpt>
      <trkpt lat="47.79468" lon="-3.27776">
        <ele>-9</ele>
        <time>2016-04-28T13:28:48Z</time>
      </trkpt>
      <trkpt lat="47.79468" lon="-3.27775">
        <ele>-8.51</ele>
        <time>2016-04-28T13:29:07Z</time>
      </trkpt>
      <trkpt lat="47.79468" lon="-3.27775">
        <ele>-7.55</ele>
        <time>2016-04-28T13:29:24Z</time>
      </trkpt>
      <trkpt lat="47.79468" lon="-3.27775">
        <ele>-6.59</ele>
        <time>2016-04-28T13:29:49Z</time>
      </trkpt>
      <trkpt lat="47.7947" lon="-3.27779">
        <ele>-6.11</ele>
        <time>2016-04-28T13:30:12Z</time>
      </trkpt>
      <trkpt lat="47.7947" lon="-3.27778">
        <ele>-5.15</ele>
        <time>2016-04-28T13:30:35Z</time>
      </trkpt>
      <trkpt lat="47.79468" lon="-3.27777">
        <ele>-4.19</ele>
        <time>2016-04-28T13:30:59Z</time>
      </trkpt>
      <trkpt lat="47.79468" lon="-3.27776">
        <ele>-2.75</ele>
        <time>2016-04-28T13:31:23Z</time>
      </trkpt>
      <trkpt lat="47.79467" lon="-3.27778">
        <ele>-2.27</ele>
        <time>2016-04-28T13:31:53Z</time>
      </trkpt>
      <trkpt lat="47.79468" lon="-3.2778">
        <ele>-1.79</ele>
        <time>2016-04-28T13:32:18Z</time>
      </trkpt>
      <trkpt lat="47.79468" lon="-3.27778">
        <ele>-1.3</ele>
        <time>2016-04-28T13:32:46Z</time>
      </trkpt>
      <trkpt lat="47.79468" lon="-3.27778">
        <ele>-1.3</ele>
        <time>2016-04-28T13:33:15Z</time>
      </trkpt>
      <trkpt lat="47.79472" lon="-3.27779">
        <ele>-0.34</ele>
        <time>2016-04-28T13:33:34Z</time>
      </trkpt>
      <trkpt lat="47.79472" lon="-3.27774">
        <ele>5.42</ele>
        <time>2016-04-28T13:33:47Z</time>
      </trkpt>
      <trkpt lat="47.79471" lon="-3.27778">
        <ele>4.94</ele>
        <time>2016-04-28T13:33:58Z</time>
      </trkpt>
      <trkpt lat="47.79472" lon="-3.27779">
        <ele>5.42</ele>
        <time>2016-04-28T13:34:07Z</time>
      </trkpt>
      <trkpt lat="47.79472" lon="-3.2778">
        <ele>4.94</ele>
        <time>2016-04-28T13:34:20Z</time>
      </trkpt>
      <trkpt lat="47.79472" lon="-3.27787">
        <ele>1.58</ele>
        <time>2016-04-28T13:34:34Z</time>
      </trkpt>
      <trkpt lat="47.79474" lon="-3.27789">
        <ele>0.14</ele>
        <time>2016-04-28T13:34:50Z</time>
      </trkpt>
      <trkpt lat="47.7947" lon="-3.2779">
        <ele>0.14</ele>
        <time>2016-04-28T13:35:09Z</time>
      </trkpt>
      <trkpt lat="47.79471" lon="-3.27792">
        <ele>-0.34</ele>
        <time>2016-04-28T13:35:29Z</time>
      </trkpt>
      <trkpt lat="47.79471" lon="-3.27792">
        <ele>-1.3</ele>
        <time>2016-04-28T13:35:52Z</time>
      </trkpt>
      <trkpt lat="47.7947" lon="-3.27793">
        <ele>-1.79</ele>
        <time>2016-04-28T13:36:14Z</time>
      </trkpt>
      <trkpt lat="47.79471" lon="-3.27792">
        <ele>-2.27</ele>
        <time>2016-04-28T13:36:40Z</time>
      </trkpt>
      <trkpt lat="47.79472" lon="-3.27792">
        <ele>-2.27</ele>
        <time>2016-04-28T13:36:45Z</time>
      </trkpt>
      <trkpt lat="47.79766" lon="-3.27726">
        <ele>3.02</ele>
        <time>2016-04-28T15:18:24Z</time>
      </trkpt>
      <trkpt lat="47.79764" lon="-3.27725">
        <ele>2.54</ele>
        <time>2016-04-28T15:18:46Z</time>
      </trkpt>
      <trkpt lat="47.79763" lon="-3.27722">
        <ele>2.06</ele>
        <time>2016-04-28T15:19:08Z</time>
      </trkpt>
      <trkpt lat="47.79762" lon="-3.27724">
        <ele>1.58</ele>
        <time>2016-04-28T15:19:28Z</time>
      </trkpt>
      <trkpt lat="47.79761" lon="-3.27721">
        <ele>-0.34</ele>
        <time>2016-04-28T15:19:58Z</time>
      </trkpt>
      <trkpt lat="47.7976" lon="-3.27719">
        <ele>-0.34</ele>
        <time>2016-04-28T15:20:22Z</time>
      </trkpt>
      <trkpt lat="47.79761" lon="-3.27721">
        <ele>-0.82</ele>
        <time>2016-04-28T15:20:51Z</time>
      </trkpt>
      <trkpt lat="47.79765" lon="-3.27724">
        <ele>-0.82</ele>
        <time>2016-04-28T15:21:20Z</time>
      </trkpt>
      <trkpt lat="47.79771" lon="-3.27723">
        <ele>-0.34</ele>
        <time>2016-04-28T15:21:31Z</time>
      </trkpt>
      <trkpt lat="47.79773" lon="-3.27722">
        <ele>0.14</ele>
        <time>2016-04-28T15:21:33Z</time>
      </trkpt>
      <trkpt lat="47.79774" lon="-3.27704">
        <ele>1.58</ele>
        <time>2016-04-28T15:21:47Z</time>
      </trkpt>
      <trkpt lat="47.79768" lon="-3.27704">
        <ele>1.58</ele>
        <time>2016-04-28T15:22:00Z</time>
      </trkpt>
      <trkpt lat="47.79759" lon="-3.277">
        <ele>-1.79</ele>
        <time>2016-04-28T15:22:07Z</time>
      </trkpt>
      <trkpt lat="47.79744" lon="-3.2769">
        <ele>-4.67</ele>
        <time>2016-04-28T15:22:18Z</time>
      </trkpt>
      <trkpt lat="47.79734" lon="-3.27683">
        <ele>-6.11</ele>
        <time>2016-04-28T15:22:26Z</time>
      </trkpt>
      <trkpt lat="47.7973" lon="-3.27681">
        <ele>-6.11</ele>
        <time>2016-04-28T15:22:28Z</time>
      </trkpt>
      <trkpt lat="47.79724" lon="-3.27676">
        <ele>-7.07</ele>
        <time>2016-04-28T15:22:32Z</time>
      </trkpt>
      <trkpt lat="47.79697" lon="-3.27658">
        <ele>-6.11</ele>
        <time>2016-04-28T15:22:49Z</time>
      </trkpt>
      <trkpt lat="47.79676" lon="-3.27646">
        <ele>-4.67</ele>
        <time>2016-04-28T15:23:02Z</time>
      </trkpt>
      <trkpt lat="47.7967" lon="-3.27643">
        <ele>-4.19</ele>
        <time>2016-04-28T15:23:06Z</time>
      </trkpt>
      <trkpt lat="47.79637" lon="-3.27625">
        <ele>-1.79</ele>
        <time>2016-04-28T15:23:27Z</time>
      </trkpt>
      <trkpt lat="47.79611" lon="-3.27617">
        <ele>-0.34</ele>
        <time>2016-04-28T15:23:42Z</time>
      </trkpt>
      <trkpt lat="47.79578" lon="-3.27607">
        <ele>1.58</ele>
        <time>2016-04-28T15:23:59Z</time>
      </trkpt>
      <trkpt lat="47.79551" lon="-3.27603">
        <ele>1.58</ele>
        <time>2016-04-28T15:24:13Z</time>
      </trkpt>
      <trkpt lat="47.79513" lon="-3.27602">
        <ele>-0.82</ele>
        <time>2016-04-28T15:24:32Z</time>
      </trkpt>
      <trkpt lat="47.79486" lon="-3.27614">
        <ele>-0.82</ele>
        <time>2016-04-28T15:24:46Z</time>
      </trkpt>
      <trkpt lat="47.79463" lon="-3.27636">
        <ele>-2.75</ele>
        <time>2016-04-28T15:24:59Z</time>
      </trkpt>
      <trkpt lat="47.79429" lon="-3.27673">
        <ele>-4.67</ele>
        <time>2016-04-28T15:25:20Z</time>
      </trkpt>
      <trkpt lat="47.79413" lon="-3.27691">
        <ele>-4.67</ele>
        <time>2016-04-28T15:25:31Z</time>
      </trkpt>
      <trkpt lat="47.79397" lon="-3.27713">
        <ele>-5.63</ele>
        <time>2016-04-28T15:25:43Z</time>
      </trkpt>
      <trkpt lat="47.79388" lon="-3.27739">
        <ele>-5.15</ele>
        <time>2016-04-28T15:25:57Z</time>
      </trkpt>
      <trkpt lat="47.79378" lon="-3.27782">
        <ele>-3.23</ele>
        <time>2016-04-28T15:26:16Z</time>
      </trkpt>
      <trkpt lat="47.79369" lon="-3.27824">
        <ele>-2.27</ele>
        <time>2016-04-28T15:26:33Z</time>
      </trkpt>
      <trkpt lat="47.79365" lon="-3.27861">
        <ele>-0.34</ele>
        <time>2016-04-28T15:26:48Z</time>
      </trkpt>
      <trkpt lat="47.79362" lon="-3.27889">
        <ele>-0.34</ele>
        <time>2016-04-28T15:26:59Z</time>
      </trkpt>
      <trkpt lat="47.79361" lon="-3.27898">
        <ele>-0.34</ele>
        <time>2016-04-28T15:27:03Z</time>
      </trkpt>
      <trkpt lat="47.79359" lon="-3.27937">
        <ele>-0.34</ele>
        <time>2016-04-28T15:27:19Z</time>
      </trkpt>
      <trkpt lat="47.79361" lon="-3.27971">
        <ele>-1.79</ele>
        <time>2016-04-28T15:27:34Z</time>
      </trkpt>
      <trkpt lat="47.7936" lon="-3.28021">
        <ele>-3.23</ele>
        <time>2016-04-28T15:27:55Z</time>
      </trkpt>
      <trkpt lat="47.79359" lon="-3.28064">
        <ele>-4.67</ele>
        <time>2016-04-28T15:28:13Z</time>
      </trkpt>
      <trkpt lat="47.79353" lon="-3.28117">
        <ele>-4.19</ele>
        <time>2016-04-28T15:28:34Z</time>
      </trkpt>
      <trkpt lat="47.79346" lon="-3.2816">
        <ele>-3.23</ele>
        <time>2016-04-28T15:28:50Z</time>
      </trkpt>
      <trkpt lat="47.79338" lon="-3.28194">
        <ele>-2.75</ele>
        <time>2016-04-28T15:29:03Z</time>
      </trkpt>
      <trkpt lat="47.79333" lon="-3.28232">
        <ele>0.14</ele>
        <time>2016-04-28T15:29:17Z</time>
      </trkpt>
      <trkpt lat="47.79324" lon="-3.28271">
        <ele>-0.34</ele>
        <time>2016-04-28T15:29:32Z</time>
      </trkpt>
      <trkpt lat="47.79319" lon="-3.28309">
        <ele>-0.82</ele>
        <time>2016-04-28T15:29:46Z</time>
      </trkpt>
      <trkpt lat="47.79319" lon="-3.28318">
        <ele>-1.3</ele>
        <time>2016-04-28T15:29:49Z</time>
      </trkpt>
      <trkpt lat="47.7932" lon="-3.28355">
        <ele>-2.27</ele>
        <time>2016-04-28T15:30:03Z</time>
      </trkpt>
      <trkpt lat="47.79319" lon="-3.28404">
        <ele>-1.79</ele>
        <time>2016-04-28T15:30:21Z</time>
      </trkpt>
      <trkpt lat="47.79314" lon="-3.28442">
        <ele>-3.23</ele>
        <time>2016-04-28T15:30:36Z</time>
      </trkpt>
      <trkpt lat="47.79311" lon="-3.28478">
        <ele>-2.27</ele>
        <time>2016-04-28T15:30:49Z</time>
      </trkpt>
      <trkpt lat="47.79311" lon="-3.28524">
        <ele>-1.3</ele>
        <time>2016-04-28T15:31:06Z</time>
      </trkpt>
      <trkpt lat="47.7931" lon="-3.28582">
        <ele>-2.75</ele>
        <time>2016-04-28T15:31:28Z</time>
      </trkpt>
      <trkpt lat="47.79306" lon="-3.28639">
        <ele>-2.27</ele>
        <time>2016-04-28T15:31:49Z</time>
      </trkpt>
      <trkpt lat="47.79294" lon="-3.28699">
        <ele>-0.82</ele>
        <time>2016-04-28T15:32:13Z</time>
      </trkpt>
      <trkpt lat="47.79281" lon="-3.28756">
        <ele>-1.79</ele>
        <time>2016-04-28T15:32:34Z</time>
      </trkpt>
      <trkpt lat="47.79277" lon="-3.28814">
        <ele>-2.75</ele>
        <time>2016-04-28T15:32:55Z</time>
      </trkpt>
      <trkpt lat="47.79275" lon="-3.28863">
        <ele>-1.79</ele>
        <time>2016-04-28T15:33:12Z</time>
      </trkpt>
      <trkpt lat="47.79273" lon="-3.28907">
        <ele>-2.27</ele>
        <time>2016-04-28T15:33:28Z</time>
      </trkpt>
      <trkpt lat="47.79262" lon="-3.28975">
        <ele>-0.34</ele>
        <time>2016-04-28T15:33:53Z</time>
      </trkpt>
      <trkpt lat="47.79244" lon="-3.29018">
        <ele>-1.79</ele>
        <time>2016-04-28T15:34:12Z</time>
      </trkpt>
      <trkpt lat="47.7922" lon="-3.29051">
        <ele>-0.82</ele>
        <time>2016-04-28T15:34:29Z</time>
      </trkpt>
      <trkpt lat="47.792" lon="-3.29084">
        <ele>-0.82</ele>
        <time>2016-04-28T15:34:45Z</time>
      </trkpt>
      <trkpt lat="47.79173" lon="-3.29123">
        <ele>-0.34</ele>
        <time>2016-04-28T15:35:05Z</time>
      </trkpt>
      <trkpt lat="47.79155" lon="-3.29154">
        <ele>-2.27</ele>
        <time>2016-04-28T15:35:20Z</time>
      </trkpt>
      <trkpt lat="47.79129" lon="-3.29174">
        <ele>-3.23</ele>
        <time>2016-04-28T15:35:37Z</time>
      </trkpt>
      <trkpt lat="47.79098" lon="-3.29186">
        <ele>-4.67</ele>
        <time>2016-04-28T15:35:54Z</time>
      </trkpt>
      <trkpt lat="47.79068" lon="-3.29192">
        <ele>-4.19</ele>
        <time>2016-04-28T15:36:10Z</time>
      </trkpt>
      <trkpt lat="47.79036" lon="-3.292">
        <ele>-5.15</ele>
        <time>2016-04-28T15:36:27Z</time>
      </trkpt>
      <trkpt lat="47.79004" lon="-3.29219">
        <ele>-4.67</ele>
        <time>2016-04-28T15:36:48Z</time>
      </trkpt>
      <trkpt lat="47.78982" lon="-3.29233">
        <ele>-3.71</ele>
        <time>2016-04-28T15:37:04Z</time>
      </trkpt>
      <trkpt lat="47.78958" lon="-3.29246">
        <ele>-5.63</ele>
        <time>2016-04-28T15:37:19Z</time>
      </trkpt>
      <trkpt lat="47.78929" lon="-3.29266">
        <ele>-7.55</ele>
        <time>2016-04-28T15:37:37Z</time>
      </trkpt>
      <trkpt lat="47.78903" lon="-3.29288">
        <ele>-6.59</ele>
        <time>2016-04-28T15:37:52Z</time>
      </trkpt>
      <trkpt lat="47.78877" lon="-3.29309">
        <ele>-6.59</ele>
        <time>2016-04-28T15:38:06Z</time>
      </trkpt>
      <trkpt lat="47.78854" lon="-3.29329">
        <ele>-6.11</ele>
        <time>2016-04-28T15:38:19Z</time>
      </trkpt>
      <trkpt lat="47.78823" lon="-3.29364">
        <ele>-4.67</ele>
        <time>2016-04-28T15:38:38Z</time>
      </trkpt>
      <trkpt lat="47.788" lon="-3.29382">
        <ele>-3.71</ele>
        <time>2016-04-28T15:38:50Z</time>
      </trkpt>
      <trkpt lat="47.78771" lon="-3.29408">
        <ele>-3.23</ele>
        <time>2016-04-28T15:39:07Z</time>
      </trkpt>
      <trkpt lat="47.78736" lon="-3.29429">
        <ele>-2.27</ele>
        <time>2016-04-28T15:39:25Z</time>
      </trkpt>
      <trkpt lat="47.78688" lon="-3.29456">
        <ele>-3.71</ele>
        <time>2016-04-28T15:39:49Z</time>
      </trkpt>
      <trkpt lat="47.78655" lon="-3.29468">
        <ele>-4.19</ele>
        <time>2016-04-28T15:40:05Z</time>
      </trkpt>
      <trkpt lat="47.78606" lon="-3.2948">
        <ele>-2.75</ele>
        <time>2016-04-28T15:40:28Z</time>
      </trkpt>
      <trkpt lat="47.78554" lon="-3.29485">
        <ele>-3.23</ele>
        <time>2016-04-28T15:40:52Z</time>
      </trkpt>
      <trkpt lat="47.78512" lon="-3.29484">
        <ele>-3.71</ele>
        <time>2016-04-28T15:41:11Z</time>
      </trkpt>
      <trkpt lat="47.78467" lon="-3.29483">
        <ele>-4.19</ele>
        <time>2016-04-28T15:41:33Z</time>
      </trkpt>
      <trkpt lat="47.78439" lon="-3.2946">
        <ele>-5.15</ele>
        <time>2016-04-28T15:41:50Z</time>
      </trkpt>
      <trkpt lat="47.78402" lon="-3.29414">
        <ele>-3.71</ele>
        <time>2016-04-28T15:42:16Z</time>
      </trkpt>
      <trkpt lat="47.7837" lon="-3.29388">
        <ele>-3.71</ele>
        <time>2016-04-28T15:42:34Z</time>
      </trkpt>
      <trkpt lat="47.78342" lon="-3.29341">
        <ele>-1.79</ele>
        <time>2016-04-28T15:42:56Z</time>
      </trkpt>
      <trkpt lat="47.78341" lon="-3.29285">
        <ele>-0.82</ele>
        <time>2016-04-28T15:43:17Z</time>
      </trkpt>
      <trkpt lat="47.78346" lon="-3.29226">
        <ele>0.14</ele>
        <time>2016-04-28T15:43:40Z</time>
      </trkpt>
      <trkpt lat="47.78343" lon="-3.29165">
        <ele>0.62</ele>
        <time>2016-04-28T15:44:04Z</time>
      </trkpt>
      <trkpt lat="47.78335" lon="-3.29112">
        <ele>-0.34</ele>
        <time>2016-04-28T15:44:24Z</time>
      </trkpt>
      <trkpt lat="47.78318" lon="-3.29057">
        <ele>-0.82</ele>
        <time>2016-04-28T15:44:45Z</time>
      </trkpt>
      <trkpt lat="47.78286" lon="-3.29004">
        <ele>-1.79</ele>
        <time>2016-04-28T15:45:09Z</time>
      </trkpt>
      <trkpt lat="47.78261" lon="-3.2897">
        <ele>-0.82</ele>
        <time>2016-04-28T15:45:26Z</time>
      </trkpt>
      <trkpt lat="47.78231" lon="-3.28934">
        <ele>-1.3</ele>
        <time>2016-04-28T15:45:44Z</time>
      </trkpt>
      <trkpt lat="47.78199" lon="-3.28902">
        <ele>-0.82</ele>
        <time>2016-04-28T15:46:03Z</time>
      </trkpt>
      <trkpt lat="47.7817" lon="-3.28884">
        <ele>-1.79</ele>
        <time>2016-04-28T15:46:18Z</time>
      </trkpt>
      <trkpt lat="47.78137" lon="-3.28872">
        <ele>-0.34</ele>
        <time>2016-04-28T15:46:34Z</time>
      </trkpt>
      <trkpt lat="47.781" lon="-3.28859">
        <ele>0.14</ele>
        <time>2016-04-28T15:46:52Z</time>
      </trkpt>
      <trkpt lat="47.78076" lon="-3.28848">
        <ele>-1.3</ele>
        <time>2016-04-28T15:47:03Z</time>
      </trkpt>
      <trkpt lat="47.7804" lon="-3.28816">
        <ele>-0.82</ele>
        <time>2016-04-28T15:47:24Z</time>
      </trkpt>
      <trkpt lat="47.78" lon="-3.28781">
        <ele>-0.82</ele>
        <time>2016-04-28T15:47:47Z</time>
      </trkpt>
      <trkpt lat="47.7796" lon="-3.2875">
        <ele>-0.82</ele>
        <time>2016-04-28T15:48:10Z</time>
      </trkpt>
      <trkpt lat="47.77934" lon="-3.28732">
        <ele>-1.79</ele>
        <time>2016-04-28T15:48:25Z</time>
      </trkpt>
      <trkpt lat="47.77916" lon="-3.28704">
        <ele>-2.75</ele>
        <time>2016-04-28T15:48:39Z</time>
      </trkpt>
      <trkpt lat="47.77887" lon="-3.28666">
        <ele>-1.3</ele>
        <time>2016-04-28T15:49:01Z</time>
      </trkpt>
      <trkpt lat="47.7787" lon="-3.28644">
        <ele>-1.79</ele>
        <time>2016-04-28T15:49:14Z</time>
      </trkpt>
      <trkpt lat="47.77853" lon="-3.28628">
        <ele>-2.27</ele>
        <time>2016-04-28T15:49:26Z</time>
      </trkpt>
      <trkpt lat="47.77843" lon="-3.28623">
        <ele>-3.23</ele>
        <time>2016-04-28T15:49:33Z</time>
      </trkpt>
      <trkpt lat="47.77826" lon="-3.28605">
        <ele>-1.3</ele>
        <time>2016-04-28T15:49:49Z</time>
      </trkpt>
      <trkpt lat="47.77805" lon="-3.28581">
        <ele>-1.3</ele>
        <time>2016-04-28T15:50:08Z</time>
      </trkpt>
      <trkpt lat="47.7778" lon="-3.28552">
        <ele>-0.34</ele>
        <time>2016-04-28T15:50:27Z</time>
      </trkpt>
      <trkpt lat="47.77766" lon="-3.28535">
        <ele>-0.82</ele>
        <time>2016-04-28T15:50:38Z</time>
      </trkpt>
      <trkpt lat="47.77748" lon="-3.28519">
        <ele>-1.3</ele>
        <time>2016-04-28T15:50:54Z</time>
      </trkpt>
      <trkpt lat="47.77746" lon="-3.28518">
        <ele>-0.82</ele>
        <time>2016-04-28T15:50:56Z</time>
      </trkpt>
      <trkpt lat="47.77736" lon="-3.28509">
        <ele>-1.3</ele>
        <time>2016-04-28T15:51:06Z</time>
      </trkpt>
      <trkpt lat="47.77714" lon="-3.28484">
        <ele>-1.3</ele>
        <time>2016-04-28T15:51:27Z</time>
      </trkpt>
      <trkpt lat="47.77679" lon="-3.28462">
        <ele>0.62</ele>
        <time>2016-04-28T15:51:52Z</time>
      </trkpt>
      <trkpt lat="47.77666" lon="-3.28452">
        <ele>0.62</ele>
        <time>2016-04-28T15:52:02Z</time>
      </trkpt>
      <trkpt lat="47.7766" lon="-3.28446">
        <ele>1.1</ele>
        <time>2016-04-28T15:52:07Z</time>
      </trkpt>
      <trkpt lat="47.7763" lon="-3.28435">
        <ele>1.58</ele>
        <time>2016-04-28T15:52:28Z</time>
      </trkpt>
      <trkpt lat="47.77602" lon="-3.2843">
        <ele>-0.34</ele>
        <time>2016-04-28T15:52:46Z</time>
      </trkpt>
      <trkpt lat="47.77578" lon="-3.28431">
        <ele>-1.79</ele>
        <time>2016-04-28T15:53:02Z</time>
      </trkpt>
      <trkpt lat="47.77551" lon="-3.2843">
        <ele>-1.3</ele>
        <time>2016-04-28T15:53:20Z</time>
      </trkpt>
      <trkpt lat="47.77523" lon="-3.28433">
        <ele>-1.3</ele>
        <time>2016-04-28T15:53:39Z</time>
      </trkpt>
      <trkpt lat="47.77502" lon="-3.28437">
        <ele>-0.82</ele>
        <time>2016-04-28T15:53:55Z</time>
      </trkpt>
      <trkpt lat="47.77476" lon="-3.28446">
        <ele>-1.79</ele>
        <time>2016-04-28T15:54:13Z</time>
      </trkpt>
      <trkpt lat="47.77456" lon="-3.28454">
        <ele>-1.79</ele>
        <time>2016-04-28T15:54:26Z</time>
      </trkpt>
      <trkpt lat="47.77434" lon="-3.28465">
        <ele>-1.79</ele>
        <time>2016-04-28T15:54:42Z</time>
      </trkpt>
      <trkpt lat="47.77405" lon="-3.28484">
        <ele>-1.3</ele>
        <time>2016-04-28T15:55:04Z</time>
      </trkpt>
      <trkpt lat="47.77388" lon="-3.28498">
        <ele>-1.3</ele>
        <time>2016-04-28T15:55:32Z</time>
      </trkpt>
      <trkpt lat="47.77379" lon="-3.28505">
        <ele>-1.3</ele>
        <time>2016-04-28T15:56:07Z</time>
      </trkpt>
      <trkpt lat="47.77362" lon="-3.28517">
        <ele>-2.27</ele>
        <time>2016-04-28T15:56:42Z</time>
      </trkpt>
      <trkpt lat="47.77328" lon="-3.28532">
        <ele>-0.82</ele>
        <time>2016-04-28T15:57:06Z</time>
      </trkpt>
      <trkpt lat="47.77289" lon="-3.28546">
        <ele>-1.79</ele>
        <time>2016-04-28T15:57:32Z</time>
      </trkpt>
      <trkpt lat="47.77249" lon="-3.28566">
        <ele>-1.79</ele>
        <time>2016-04-28T15:57:58Z</time>
      </trkpt>
      <trkpt lat="47.77209" lon="-3.28586">
        <ele>-0.34</ele>
        <time>2016-04-28T15:58:25Z</time>
      </trkpt>
      <trkpt lat="47.77191" lon="-3.28598">
        <ele>-1.79</ele>
        <time>2016-04-28T15:58:38Z</time>
      </trkpt>
      <trkpt lat="47.77154" lon="-3.28607">
        <ele>0.14</ele>
        <time>2016-04-28T15:59:01Z</time>
      </trkpt>
      <trkpt lat="47.77118" lon="-3.28615">
        <ele>0.14</ele>
        <time>2016-04-28T15:59:23Z</time>
      </trkpt>
      <trkpt lat="47.77087" lon="-3.28625">
        <ele>0.62</ele>
        <time>2016-04-28T15:59:43Z</time>
      </trkpt>
      <trkpt lat="47.77041" lon="-3.28654">
        <ele>2.54</ele>
        <time>2016-04-28T16:00:13Z</time>
      </trkpt>
      <trkpt lat="47.77009" lon="-3.28685">
        <ele>2.06</ele>
        <time>2016-04-28T16:00:38Z</time>
      </trkpt>
      <trkpt lat="47.76981" lon="-3.28738">
        <ele>2.06</ele>
        <time>2016-04-28T16:01:09Z</time>
      </trkpt>
      <trkpt lat="47.76964" lon="-3.28773">
        <ele>0.62</ele>
        <time>2016-04-28T16:01:30Z</time>
      </trkpt>
      <trkpt lat="47.76946" lon="-3.28815">
        <ele>0.14</ele>
        <time>2016-04-28T16:01:55Z</time>
      </trkpt>
      <trkpt lat="47.76932" lon="-3.28867">
        <ele>-2.75</ele>
        <time>2016-04-28T16:02:22Z</time>
      </trkpt>
      <trkpt lat="47.76933" lon="-3.28913">
        <ele>-0.82</ele>
        <time>2016-04-28T16:02:45Z</time>
      </trkpt>
      <trkpt lat="47.76942" lon="-3.28945">
        <ele>-2.27</ele>
        <time>2016-04-28T16:03:04Z</time>
      </trkpt>
      <trkpt lat="47.76947" lon="-3.28966">
        <ele>-1.3</ele>
        <time>2016-04-28T16:03:16Z</time>
      </trkpt>
      <trkpt lat="47.76949" lon="-3.28974">
        <ele>-0.34</ele>
        <time>2016-04-28T16:03:20Z</time>
      </trkpt>
      <trkpt lat="47.76956" lon="-3.29001">
        <ele>-1.3</ele>
        <time>2016-04-28T16:03:35Z</time>
      </trkpt>
      <trkpt lat="47.76963" lon="-3.29025">
        <ele>-1.79</ele>
        <time>2016-04-28T16:03:49Z</time>
      </trkpt>
      <trkpt lat="47.76971" lon="-3.2906">
        <ele>-1.3</ele>
        <time>2016-04-28T16:04:09Z</time>
      </trkpt>
      <trkpt lat="47.76984" lon="-3.29107">
        <ele>0.14</ele>
        <time>2016-04-28T16:04:35Z</time>
      </trkpt>
      <trkpt lat="47.76997" lon="-3.2915">
        <ele>-0.34</ele>
        <time>2016-04-28T16:05:01Z</time>
      </trkpt>
      <trkpt lat="47.77011" lon="-3.29195">
        <ele>-0.82</ele>
        <time>2016-04-28T16:05:26Z</time>
      </trkpt>
      <trkpt lat="47.77025" lon="-3.29236">
        <ele>-0.82</ele>
        <time>2016-04-28T16:05:48Z</time>
      </trkpt>
      <trkpt lat="47.77049" lon="-3.29288">
        <ele>-1.3</ele>
        <time>2016-04-28T16:06:16Z</time>
      </trkpt>
      <trkpt lat="47.77076" lon="-3.29343">
        <ele>-0.82</ele>
        <time>2016-04-28T16:06:43Z</time>
      </trkpt>
      <trkpt lat="47.77098" lon="-3.29381">
        <ele>-0.82</ele>
        <time>2016-04-28T16:07:04Z</time>
      </trkpt>
      <trkpt lat="47.77118" lon="-3.29411">
        <ele>-0.82</ele>
        <time>2016-04-28T16:07:22Z</time>
      </trkpt>
      <trkpt lat="47.77129" lon="-3.29442">
        <ele>1.1</ele>
        <time>2016-04-28T16:07:38Z</time>
      </trkpt>
      <trkpt lat="47.77146" lon="-3.2949">
        <ele>1.58</ele>
        <time>2016-04-28T16:08:00Z</time>
      </trkpt>
      <trkpt lat="47.77172" lon="-3.29533">
        <ele>-0.82</ele>
        <time>2016-04-28T16:08:20Z</time>
      </trkpt>
      <trkpt lat="47.77205" lon="-3.29566">
        <ele>-3.23</ele>
        <time>2016-04-28T16:08:41Z</time>
      </trkpt>
      <trkpt lat="47.7723" lon="-3.29602">
        <ele>-2.75</ele>
        <time>2016-04-28T16:09:00Z</time>
      </trkpt>
      <trkpt lat="47.77246" lon="-3.29655">
        <ele>-1.3</ele>
        <time>2016-04-28T16:09:25Z</time>
      </trkpt>
      <trkpt lat="47.77229" lon="-3.29702">
        <ele>0.14</ele>
        <time>2016-04-28T16:09:51Z</time>
      </trkpt>
      <trkpt lat="47.77208" lon="-3.29749">
        <ele>-0.82</ele>
        <time>2016-04-28T16:10:19Z</time>
      </trkpt>
      <trkpt lat="47.77192" lon="-3.29795">
        <ele>-1.3</ele>
        <time>2016-04-28T16:10:44Z</time>
      </trkpt>
      <trkpt lat="47.77161" lon="-3.29835">
        <ele>-1.3</ele>
        <time>2016-04-28T16:11:12Z</time>
      </trkpt>
      <trkpt lat="47.7713" lon="-3.29864">
        <ele>-0.82</ele>
        <time>2016-04-28T16:11:36Z</time>
      </trkpt>
      <trkpt lat="47.77105" lon="-3.29893">
        <ele>-1.79</ele>
        <time>2016-04-28T16:11:57Z</time>
      </trkpt>
      <trkpt lat="47.77071" lon="-3.29907">
        <ele>-1.79</ele>
        <time>2016-04-28T16:12:20Z</time>
      </trkpt>
      <trkpt lat="47.7703" lon="-3.29933">
        <ele>0.62</ele>
        <time>2016-04-28T16:12:49Z</time>
      </trkpt>
      <trkpt lat="47.76993" lon="-3.29937">
        <ele>0.14</ele>
        <time>2016-04-28T16:13:13Z</time>
      </trkpt>
      <trkpt lat="47.76961" lon="-3.29945">
        <ele>0.62</ele>
        <time>2016-04-28T16:13:34Z</time>
      </trkpt>
      <trkpt lat="47.7693" lon="-3.29959">
        <ele>-1.3</ele>
        <time>2016-04-28T16:13:55Z</time>
      </trkpt>
      <trkpt lat="47.76903" lon="-3.29973">
        <ele>-1.3</ele>
        <time>2016-04-28T16:14:14Z</time>
      </trkpt>
      <trkpt lat="47.76875" lon="-3.29968">
        <ele>-1.3</ele>
        <time>2016-04-28T16:14:31Z</time>
      </trkpt>
      <trkpt lat="47.7683" lon="-3.29966">
        <ele>-1.3</ele>
        <time>2016-04-28T16:14:59Z</time>
      </trkpt>
      <trkpt lat="47.76797" lon="-3.29969">
        <ele>-2.27</ele>
        <time>2016-04-28T16:15:24Z</time>
      </trkpt>
      <trkpt lat="47.76768" lon="-3.29978">
        <ele>-2.27</ele>
        <time>2016-04-28T16:15:51Z</time>
      </trkpt>
      <trkpt lat="47.76751" lon="-3.29992">
        <ele>-2.75</ele>
        <time>2016-04-28T16:16:11Z</time>
      </trkpt>
      <trkpt lat="47.7673" lon="-3.3001">
        <ele>-2.27</ele>
        <time>2016-04-28T16:16:33Z</time>
      </trkpt>
      <trkpt lat="47.76705" lon="-3.30025">
        <ele>-3.23</ele>
        <time>2016-04-28T16:16:56Z</time>
      </trkpt>
      <trkpt lat="47.76685" lon="-3.30037">
        <ele>-1.3</ele>
        <time>2016-04-28T16:17:16Z</time>
      </trkpt>
      <trkpt lat="47.76663" lon="-3.30049">
        <ele>-2.75</ele>
        <time>2016-04-28T16:17:39Z</time>
      </trkpt>
      <trkpt lat="47.76648" lon="-3.3006">
        <ele>-0.82</ele>
        <time>2016-04-28T16:17:57Z</time>
      </trkpt>
      <trkpt lat="47.76644" lon="-3.30064">
        <ele>-0.82</ele>
        <time>2016-04-28T16:18:01Z</time>
      </trkpt>
      <trkpt lat="47.76642" lon="-3.30068">
        <ele>-0.82</ele>
        <time>2016-04-28T16:18:05Z</time>
      </trkpt>
      <trkpt lat="47.76626" lon="-3.30081">
        <ele>-1.79</ele>
        <time>2016-04-28T16:18:19Z</time>
      </trkpt>
      <trkpt lat="47.76613" lon="-3.3009">
        <ele>-4.19</ele>
        <time>2016-04-28T16:18:35Z</time>
      </trkpt>
      <trkpt lat="47.76599" lon="-3.30104">
        <ele>-5.15</ele>
        <time>2016-04-28T16:18:48Z</time>
      </trkpt>
      <trkpt lat="47.76565" lon="-3.30128">
        <ele>-2.75</ele>
        <time>2016-04-28T16:19:14Z</time>
      </trkpt>
      <trkpt lat="47.7654" lon="-3.30142">
        <ele>-3.23</ele>
        <time>2016-04-28T16:19:31Z</time>
      </trkpt>
      <trkpt lat="47.76519" lon="-3.30172">
        <ele>-2.75</ele>
        <time>2016-04-28T16:19:51Z</time>
      </trkpt>
      <trkpt lat="47.76496" lon="-3.302">
        <ele>-3.23</ele>
        <time>2016-04-28T16:20:10Z</time>
      </trkpt>
      <trkpt lat="47.76471" lon="-3.30227">
        <ele>-3.71</ele>
        <time>2016-04-28T16:20:29Z</time>
      </trkpt>
      <trkpt lat="47.76444" lon="-3.30264">
        <ele>-3.71</ele>
        <time>2016-04-28T16:20:51Z</time>
      </trkpt>
      <trkpt lat="47.76417" lon="-3.30297">
        <ele>-3.23</ele>
        <time>2016-04-28T16:21:10Z</time>
      </trkpt>
      <trkpt lat="47.76396" lon="-3.30325">
        <ele>-1.79</ele>
        <time>2016-04-28T16:21:26Z</time>
      </trkpt>
      <trkpt lat="47.76368" lon="-3.30366">
        <ele>-2.27</ele>
        <time>2016-04-28T16:21:50Z</time>
      </trkpt>
      <trkpt lat="47.76337" lon="-3.30408">
        <ele>-2.27</ele>
        <time>2016-04-28T16:22:15Z</time>
      </trkpt>
      <trkpt lat="47.76302" lon="-3.30451">
        <ele>-2.27</ele>
        <time>2016-04-28T16:22:42Z</time>
      </trkpt>
      <trkpt lat="47.76272" lon="-3.30482">
        <ele>-2.75</ele>
        <time>2016-04-28T16:23:04Z</time>
      </trkpt>
      <trkpt lat="47.76246" lon="-3.30509">
        <ele>-1.79</ele>
        <time>2016-04-28T16:23:23Z</time>
      </trkpt>
      <trkpt lat="47.76209" lon="-3.30563">
        <ele>-1.3</ele>
        <time>2016-04-28T16:23:53Z</time>
      </trkpt>
      <trkpt lat="47.7619" lon="-3.30595">
        <ele>-1.3</ele>
        <time>2016-04-28T16:24:10Z</time>
      </trkpt>
      <trkpt lat="47.76163" lon="-3.30641">
        <ele>-1.3</ele>
        <time>2016-04-28T16:24:34Z</time>
      </trkpt>
      <trkpt lat="47.7614" lon="-3.30676">
        <ele>-1.3</ele>
        <time>2016-04-28T16:24:55Z</time>
      </trkpt>
      <trkpt lat="47.76111" lon="-3.30737">
        <ele>-0.34</ele>
        <time>2016-04-28T16:25:25Z</time>
      </trkpt>
      <trkpt lat="47.76082" lon="-3.30798">
        <ele>-1.79</ele>
        <time>2016-04-28T16:25:55Z</time>
      </trkpt>
      <trkpt lat="47.76041" lon="-3.30855">
        <ele>-0.82</ele>
        <time>2016-04-28T16:26:28Z</time>
      </trkpt>
      <trkpt lat="47.76003" lon="-3.30897">
        <ele>-0.34</ele>
        <time>2016-04-28T16:26:55Z</time>
      </trkpt>
      <trkpt lat="47.75964" lon="-3.30948">
        <ele>-1.79</ele>
        <time>2016-04-28T16:27:24Z</time>
      </trkpt>
      <trkpt lat="47.75944" lon="-3.30973">
        <ele>-1.79</ele>
        <time>2016-04-28T16:27:40Z</time>
      </trkpt>
      <trkpt lat="47.75914" lon="-3.31022">
        <ele>-2.75</ele>
        <time>2016-04-28T16:28:06Z</time>
      </trkpt>
      <trkpt lat="47.75878" lon="-3.31069">
        <ele>-1.79</ele>
        <time>2016-04-28T16:28:36Z</time>
      </trkpt>
      <trkpt lat="47.75845" lon="-3.31122">
        <ele>-2.27</ele>
        <time>2016-04-28T16:29:06Z</time>
      </trkpt>
      <trkpt lat="47.75818" lon="-3.31154">
        <ele>-2.27</ele>
        <time>2016-04-28T16:29:28Z</time>
      </trkpt>
      <trkpt lat="47.75787" lon="-3.312">
        <ele>0.14</ele>
        <time>2016-04-28T16:29:58Z</time>
      </trkpt>
      <trkpt lat="47.75768" lon="-3.31227">
        <ele>-1.3</ele>
        <time>2016-04-28T16:30:16Z</time>
      </trkpt>
      <trkpt lat="47.7575" lon="-3.31255">
        <ele>-1.3</ele>
        <time>2016-04-28T16:30:36Z</time>
      </trkpt>
      <trkpt lat="47.75726" lon="-3.31282">
        <ele>-0.82</ele>
        <time>2016-04-28T16:30:57Z</time>
      </trkpt>
      <trkpt lat="47.75694" lon="-3.31309">
        <ele>-0.82</ele>
        <time>2016-04-28T16:31:24Z</time>
      </trkpt>
      <trkpt lat="47.75666" lon="-3.31334">
        <ele>-0.82</ele>
        <time>2016-04-28T16:31:47Z</time>
      </trkpt>
      <trkpt lat="47.7563" lon="-3.31357">
        <ele>-0.34</ele>
        <time>2016-04-28T16:32:14Z</time>
      </trkpt>
      <trkpt lat="47.75597" lon="-3.31371">
        <ele>-1.3</ele>
        <time>2016-04-28T16:32:38Z</time>
      </trkpt>
      <trkpt lat="47.75565" lon="-3.31395">
        <ele>-1.3</ele>
        <time>2016-04-28T16:33:04Z</time>
      </trkpt>
      <trkpt lat="47.75528" lon="-3.31413">
        <ele>0.14</ele>
        <time>2016-04-28T16:33:31Z</time>
      </trkpt>
      <trkpt lat="47.75492" lon="-3.31445">
        <ele>0.14</ele>
        <time>2016-04-28T16:34:00Z</time>
      </trkpt>
      <trkpt lat="47.75469" lon="-3.31472">
        <ele>-0.34</ele>
        <time>2016-04-28T16:34:21Z</time>
      </trkpt>
      <trkpt lat="47.75444" lon="-3.31503">
        <ele>-0.34</ele>
        <time>2016-04-28T16:34:44Z</time>
      </trkpt>
      <trkpt lat="47.75414" lon="-3.31528">
        <ele>-0.34</ele>
        <time>2016-04-28T16:35:07Z</time>
      </trkpt>
      <trkpt lat="47.75384" lon="-3.3155">
        <ele>-0.34</ele>
        <time>2016-04-28T16:35:30Z</time>
      </trkpt>
      <trkpt lat="47.75352" lon="-3.31582">
        <ele>-0.34</ele>
        <time>2016-04-28T16:35:56Z</time>
      </trkpt>
      <trkpt lat="47.75323" lon="-3.3161">
        <ele>-0.34</ele>
        <time>2016-04-28T16:36:21Z</time>
      </trkpt>
      <trkpt lat="47.75295" lon="-3.31635">
        <ele>0.62</ele>
        <time>2016-04-28T16:36:44Z</time>
      </trkpt>
      <trkpt lat="47.75271" lon="-3.3166">
        <ele>1.1</ele>
        <time>2016-04-28T16:37:04Z</time>
      </trkpt>
      <trkpt lat="47.75245" lon="-3.31688">
        <ele>1.1</ele>
        <time>2016-04-28T16:37:26Z</time>
      </trkpt>
      <trkpt lat="47.75208" lon="-3.31732">
        <ele>0.14</ele>
        <time>2016-04-28T16:37:58Z</time>
      </trkpt>
      <trkpt lat="47.75166" lon="-3.31778">
        <ele>1.1</ele>
        <time>2016-04-28T16:38:32Z</time>
      </trkpt>
      <trkpt lat="47.75131" lon="-3.31814">
        <ele>0.14</ele>
        <time>2016-04-28T16:39:00Z</time>
      </trkpt>
      <trkpt lat="47.75096" lon="-3.31846">
        <ele>-0.34</ele>
        <time>2016-04-28T16:39:27Z</time>
      </trkpt>
      <trkpt lat="47.75058" lon="-3.3188">
        <ele>0.14</ele>
        <time>2016-04-28T16:39:55Z</time>
      </trkpt>
      <trkpt lat="47.7503" lon="-3.31905">
        <ele>-0.82</ele>
        <time>2016-04-28T16:40:16Z</time>
      </trkpt>
      <trkpt lat="47.7499" lon="-3.31938">
        <ele>-0.34</ele>
        <time>2016-04-28T16:40:46Z</time>
      </trkpt>
      <trkpt lat="47.74969" lon="-3.3196">
        <ele>-2.27</ele>
        <time>2016-04-28T16:41:04Z</time>
      </trkpt>
      <trkpt lat="47.74939" lon="-3.31979">
        <ele>-2.27</ele>
        <time>2016-04-28T16:41:26Z</time>
      </trkpt>
      <trkpt lat="47.74913" lon="-3.3199">
        <ele>-2.27</ele>
        <time>2016-04-28T16:41:46Z</time>
      </trkpt>
      <trkpt lat="47.74886" lon="-3.32014">
        <ele>-2.27</ele>
        <time>2016-04-28T16:42:05Z</time>
      </trkpt>
      <trkpt lat="47.74861" lon="-3.32042">
        <ele>-1.79</ele>
        <time>2016-04-28T16:42:24Z</time>
      </trkpt>
      <trkpt lat="47.74842" lon="-3.32059">
        <ele>-0.82</ele>
        <time>2016-04-28T16:42:39Z</time>
      </trkpt>
      <trkpt lat="47.74824" lon="-3.3207">
        <ele>-2.27</ele>
        <time>2016-04-28T16:42:50Z</time>
      </trkpt>
      <trkpt lat="47.748" lon="-3.32088">
        <ele>-0.82</ele>
        <time>2016-04-28T16:43:07Z</time>
      </trkpt>
      <trkpt lat="47.74775" lon="-3.32108">
        <ele>1.1</ele>
        <time>2016-04-28T16:43:25Z</time>
      </trkpt>
      <trkpt lat="47.74742" lon="-3.32137">
        <ele>2.54</ele>
        <time>2016-04-28T16:43:50Z</time>
      </trkpt>
      <trkpt lat="47.74714" lon="-3.32157">
        <ele>2.06</ele>
        <time>2016-04-28T16:44:10Z</time>
      </trkpt>
      <trkpt lat="47.74694" lon="-3.3218">
        <ele>0.62</ele>
        <time>2016-04-28T16:44:25Z</time>
      </trkpt>
      <trkpt lat="47.74658" lon="-3.32218">
        <ele>0.14</ele>
        <time>2016-04-28T16:44:53Z</time>
      </trkpt>
      <trkpt lat="47.74635" lon="-3.32248">
        <ele>0.62</ele>
        <time>2016-04-28T16:45:11Z</time>
      </trkpt>
      <trkpt lat="47.74611" lon="-3.32281">
        <ele>0.14</ele>
        <time>2016-04-28T16:45:31Z</time>
      </trkpt>
      <trkpt lat="47.74573" lon="-3.32319">
        <ele>1.1</ele>
        <time>2016-04-28T16:45:59Z</time>
      </trkpt>
      <trkpt lat="47.7455" lon="-3.32348">
        <ele>1.1</ele>
        <time>2016-04-28T16:46:18Z</time>
      </trkpt>
      <trkpt lat="47.74524" lon="-3.32383">
        <ele>1.58</ele>
        <time>2016-04-28T16:46:40Z</time>
      </trkpt>
      <trkpt lat="47.74493" lon="-3.32426">
        <ele>2.06</ele>
        <time>2016-04-28T16:47:06Z</time>
      </trkpt>
      <trkpt lat="47.74466" lon="-3.32459">
        <ele>1.58</ele>
        <time>2016-04-28T16:47:29Z</time>
      </trkpt>
      <trkpt lat="47.7444" lon="-3.32494">
        <ele>1.1</ele>
        <time>2016-04-28T16:47:52Z</time>
      </trkpt>
      <trkpt lat="47.74417" lon="-3.32536">
        <ele>0.62</ele>
        <time>2016-04-28T16:48:15Z</time>
      </trkpt>
      <trkpt lat="47.7439" lon="-3.32587">
        <ele>1.58</ele>
        <time>2016-04-28T16:48:43Z</time>
      </trkpt>
      <trkpt lat="47.74366" lon="-3.32631">
        <ele>1.1</ele>
        <time>2016-04-28T16:49:08Z</time>
      </trkpt>
      <trkpt lat="47.74336" lon="-3.3268">
        <ele>1.1</ele>
        <time>2016-04-28T16:49:36Z</time>
      </trkpt>
      <trkpt lat="47.74304" lon="-3.32731">
        <ele>1.1</ele>
        <time>2016-04-28T16:50:05Z</time>
      </trkpt>
      <trkpt lat="47.74276" lon="-3.32776">
        <ele>-0.82</ele>
        <time>2016-04-28T16:50:30Z</time>
      </trkpt>
      <trkpt lat="47.74259" lon="-3.32806">
        <ele>0.14</ele>
        <time>2016-04-28T16:50:46Z</time>
      </trkpt>
      <trkpt lat="47.74219" lon="-3.32847">
        <ele>0.14</ele>
        <time>2016-04-28T16:51:14Z</time>
      </trkpt>
      <trkpt lat="47.74198" lon="-3.32878">
        <ele>0.62</ele>
        <time>2016-04-28T16:51:33Z</time>
      </trkpt>
      <trkpt lat="47.7418" lon="-3.32911">
        <ele>1.58</ele>
        <time>2016-04-28T16:51:51Z</time>
      </trkpt>
      <trkpt lat="47.74167" lon="-3.32951">
        <ele>2.06</ele>
        <time>2016-04-28T16:52:09Z</time>
      </trkpt>
      <trkpt lat="47.7416" lon="-3.32971">
        <ele>1.58</ele>
        <time>2016-04-28T16:52:19Z</time>
      </trkpt>
      <trkpt lat="47.74141" lon="-3.32998">
        <ele>1.58</ele>
        <time>2016-04-28T16:52:37Z</time>
      </trkpt>
      <trkpt lat="47.74125" lon="-3.33033">
        <ele>3.02</ele>
        <time>2016-04-28T16:52:55Z</time>
      </trkpt>
      <trkpt lat="47.74097" lon="-3.33077">
        <ele>3.5</ele>
        <time>2016-04-28T16:53:22Z</time>
      </trkpt>
      <trkpt lat="47.74077" lon="-3.33131">
        <ele>3.5</ele>
        <time>2016-04-28T16:53:50Z</time>
      </trkpt>
      <trkpt lat="47.74053" lon="-3.33178">
        <ele>4.94</ele>
        <time>2016-04-28T16:54:17Z</time>
      </trkpt>
      <trkpt lat="47.74032" lon="-3.33226">
        <ele>4.94</ele>
        <time>2016-04-28T16:54:44Z</time>
      </trkpt>
      <trkpt lat="47.74006" lon="-3.33278">
        <ele>4.94</ele>
        <time>2016-04-28T16:55:13Z</time>
      </trkpt>
      <trkpt lat="47.73977" lon="-3.33328">
        <ele>4.46</ele>
        <time>2016-04-28T16:55:42Z</time>
      </trkpt>
      <trkpt lat="47.73944" lon="-3.3338">
        <ele>4.46</ele>
        <time>2016-04-28T16:56:15Z</time>
      </trkpt>
      <trkpt lat="47.73915" lon="-3.33441">
        <ele>4.46</ele>
        <time>2016-04-28T16:56:49Z</time>
      </trkpt>
      <trkpt lat="47.7389" lon="-3.33495">
        <ele>3.5</ele>
        <time>2016-04-28T16:57:18Z</time>
      </trkpt>
      <trkpt lat="47.73868" lon="-3.33538">
        <ele>2.54</ele>
        <time>2016-04-28T16:57:42Z</time>
      </trkpt>
      <trkpt lat="47.73856" lon="-3.33581">
        <ele>3.5</ele>
        <time>2016-04-28T16:58:04Z</time>
      </trkpt>
      <trkpt lat="47.73838" lon="-3.33637">
        <ele>3.02</ele>
        <time>2016-04-28T16:58:32Z</time>
      </trkpt>
      <trkpt lat="47.73825" lon="-3.33698">
        <ele>3.98</ele>
        <time>2016-04-28T16:59:02Z</time>
      </trkpt>
      <trkpt lat="47.73814" lon="-3.33732">
        <ele>4.94</ele>
        <time>2016-04-28T16:59:19Z</time>
      </trkpt>
      <trkpt lat="47.73809" lon="-3.33776">
        <ele>5.42</ele>
        <time>2016-04-28T16:59:40Z</time>
      </trkpt>
      <trkpt lat="47.73809" lon="-3.33782">
        <ele>4.94</ele>
        <time>2016-04-28T16:59:43Z</time>
      </trkpt>
      <trkpt lat="47.73805" lon="-3.3381">
        <ele>6.39</ele>
        <time>2016-04-28T16:59:57Z</time>
      </trkpt>
      <trkpt lat="47.738" lon="-3.33862">
        <ele>4.94</ele>
        <time>2016-04-28T17:00:21Z</time>
      </trkpt>
      <trkpt lat="47.73787" lon="-3.33912">
        <ele>4.94</ele>
        <time>2016-04-28T17:00:45Z</time>
      </trkpt>
      <trkpt lat="47.73772" lon="-3.3395">
        <ele>4.46</ele>
        <time>2016-04-28T17:01:05Z</time>
      </trkpt>
      <trkpt lat="47.73764" lon="-3.3398">
        <ele>4.46</ele>
        <time>2016-04-28T17:01:19Z</time>
      </trkpt>
      <trkpt lat="47.73763" lon="-3.34013">
        <ele>3.98</ele>
        <time>2016-04-28T17:01:34Z</time>
      </trkpt>
      <trkpt lat="47.73764" lon="-3.34058">
        <ele>3.5</ele>
        <time>2016-04-28T17:01:55Z</time>
      </trkpt>
      <trkpt lat="47.73767" lon="-3.34108">
        <ele>2.54</ele>
        <time>2016-04-28T17:02:19Z</time>
      </trkpt>
      <trkpt lat="47.73766" lon="-3.3414">
        <ele>1.58</ele>
        <time>2016-04-28T17:02:36Z</time>
      </trkpt>
      <trkpt lat="47.73766" lon="-3.34184">
        <ele>1.58</ele>
        <time>2016-04-28T17:02:55Z</time>
      </trkpt>
      <trkpt lat="47.73776" lon="-3.34229">
        <ele>0.14</ele>
        <time>2016-04-28T17:03:16Z</time>
      </trkpt>
      <trkpt lat="47.73781" lon="-3.34254">
        <ele>-0.82</ele>
        <time>2016-04-28T17:03:28Z</time>
      </trkpt>
      <trkpt lat="47.73788" lon="-3.34294">
        <ele>0.62</ele>
        <time>2016-04-28T17:03:45Z</time>
      </trkpt>
      <trkpt lat="47.7378" lon="-3.34347">
        <ele>2.54</ele>
        <time>2016-04-28T17:04:11Z</time>
      </trkpt>
      <trkpt lat="47.73776" lon="-3.34368">
        <ele>3.98</ele>
        <time>2016-04-28T17:04:27Z</time>
      </trkpt>
      <trkpt lat="47.73771" lon="-3.34392">
        <ele>3.02</ele>
        <time>2016-04-28T17:04:46Z</time>
      </trkpt>
      <trkpt lat="47.73769" lon="-3.34406">
        <ele>3.02</ele>
        <time>2016-04-28T17:04:57Z</time>
      </trkpt>
      <trkpt lat="47.73764" lon="-3.34432">
        <ele>1.58</ele>
        <time>2016-04-28T17:05:13Z</time>
      </trkpt>
      <trkpt lat="47.73756" lon="-3.34478">
        <ele>2.06</ele>
        <time>2016-04-28T17:05:35Z</time>
      </trkpt>
      <trkpt lat="47.73748" lon="-3.34512">
        <ele>2.54</ele>
        <time>2016-04-28T17:05:53Z</time>
      </trkpt>
      <trkpt lat="47.73739" lon="-3.34554">
        <ele>2.06</ele>
        <time>2016-04-28T17:06:13Z</time>
      </trkpt>
      <trkpt lat="47.73718" lon="-3.34611">
        <ele>0.14</ele>
        <time>2016-04-28T17:06:42Z</time>
      </trkpt>
      <trkpt lat="47.73702" lon="-3.34639">
        <ele>1.58</ele>
        <time>2016-04-28T17:06:58Z</time>
      </trkpt>
      <trkpt lat="47.73681" lon="-3.34674">
        <ele>2.54</ele>
        <time>2016-04-28T17:07:18Z</time>
      </trkpt>
      <trkpt lat="47.7365" lon="-3.34707">
        <ele>2.54</ele>
        <time>2016-04-28T17:07:42Z</time>
      </trkpt>
      <trkpt lat="47.73634" lon="-3.34731">
        <ele>3.5</ele>
        <time>2016-04-28T17:07:57Z</time>
      </trkpt>
      <trkpt lat="47.73621" lon="-3.34757">
        <ele>3.98</ele>
        <time>2016-04-28T17:08:11Z</time>
      </trkpt>
      <trkpt lat="47.73616" lon="-3.34764">
        <ele>4.46</ele>
        <time>2016-04-28T17:08:15Z</time>
      </trkpt>
      <trkpt lat="47.73597" lon="-3.34788">
        <ele>4.46</ele>
        <time>2016-04-28T17:08:30Z</time>
      </trkpt>
      <trkpt lat="47.73579" lon="-3.34807">
        <ele>3.5</ele>
        <time>2016-04-28T17:08:43Z</time>
      </trkpt>
      <trkpt lat="47.73573" lon="-3.34811">
        <ele>3.5</ele>
        <time>2016-04-28T17:08:47Z</time>
      </trkpt>
      <trkpt lat="47.7354" lon="-3.34828">
        <ele>3.02</ele>
        <time>2016-04-28T17:09:07Z</time>
      </trkpt>
      <trkpt lat="47.73516" lon="-3.34844">
        <ele>3.5</ele>
        <time>2016-04-28T17:09:23Z</time>
      </trkpt>
      <trkpt lat="47.73492" lon="-3.34868">
        <ele>2.54</ele>
        <time>2016-04-28T17:09:41Z</time>
      </trkpt>
      <trkpt lat="47.73468" lon="-3.34895">
        <ele>2.06</ele>
        <time>2016-04-28T17:09:59Z</time>
      </trkpt>
      <trkpt lat="47.73438" lon="-3.34932">
        <ele>1.58</ele>
        <time>2016-04-28T17:10:22Z</time>
      </trkpt>
      <trkpt lat="47.73395" lon="-3.34966">
        <ele>2.54</ele>
        <time>2016-04-28T17:10:50Z</time>
      </trkpt>
      <trkpt lat="47.73363" lon="-3.34985">
        <ele>1.1</ele>
        <time>2016-04-28T17:11:09Z</time>
      </trkpt>
      <trkpt lat="47.7333" lon="-3.34993">
        <ele>2.06</ele>
        <time>2016-04-28T17:11:26Z</time>
      </trkpt>
      <trkpt lat="47.73307" lon="-3.34992">
        <ele>2.54</ele>
        <time>2016-04-28T17:11:39Z</time>
      </trkpt>
      <trkpt lat="47.73283" lon="-3.35014">
        <ele>2.54</ele>
        <time>2016-04-28T17:11:55Z</time>
      </trkpt>
      <trkpt lat="47.73256" lon="-3.35037">
        <ele>3.02</ele>
        <time>2016-04-28T17:12:13Z</time>
      </trkpt>
      <trkpt lat="47.73231" lon="-3.35051">
        <ele>3.02</ele>
        <time>2016-04-28T17:12:29Z</time>
      </trkpt>
      <trkpt lat="47.73207" lon="-3.35059">
        <ele>3.02</ele>
        <time>2016-04-28T17:12:43Z</time>
      </trkpt>
      <trkpt lat="47.73172" lon="-3.35077">
        <ele>2.06</ele>
        <time>2016-04-28T17:13:03Z</time>
      </trkpt>
      <trkpt lat="47.73142" lon="-3.35093">
        <ele>2.06</ele>
        <time>2016-04-28T17:13:20Z</time>
      </trkpt>
      <trkpt lat="47.73114" lon="-3.351">
        <ele>2.06</ele>
        <time>2016-04-28T17:13:35Z</time>
      </trkpt>
      <trkpt lat="47.73086" lon="-3.35114">
        <ele>1.58</ele>
        <time>2016-04-28T17:13:51Z</time>
      </trkpt>
      <trkpt lat="47.73047" lon="-3.35138">
        <ele>1.58</ele>
        <time>2016-04-28T17:14:13Z</time>
      </trkpt>
      <trkpt lat="47.73022" lon="-3.35154">
        <ele>1.1</ele>
        <time>2016-04-28T17:14:28Z</time>
      </trkpt>
      <trkpt lat="47.72983" lon="-3.35178">
        <ele>2.06</ele>
        <time>2016-04-28T17:14:52Z</time>
      </trkpt>
      <trkpt lat="47.72951" lon="-3.3519">
        <ele>1.1</ele>
        <time>2016-04-28T17:15:09Z</time>
      </trkpt>
      <trkpt lat="47.72923" lon="-3.35201">
        <ele>1.1</ele>
        <time>2016-04-28T17:15:25Z</time>
      </trkpt>
      <trkpt lat="47.72889" lon="-3.35216">
        <ele>1.1</ele>
        <time>2016-04-28T17:15:45Z</time>
      </trkpt>
      <trkpt lat="47.72849" lon="-3.35231">
        <ele>0.62</ele>
        <time>2016-04-28T17:16:08Z</time>
      </trkpt>
      <trkpt lat="47.72824" lon="-3.3524">
        <ele>1.1</ele>
        <time>2016-04-28T17:16:23Z</time>
      </trkpt>
      <trkpt lat="47.72805" lon="-3.35251">
        <ele>2.54</ele>
        <time>2016-04-28T17:16:35Z</time>
      </trkpt>
      <trkpt lat="47.72775" lon="-3.35269">
        <ele>2.06</ele>
        <time>2016-04-28T17:16:54Z</time>
      </trkpt>
      <trkpt lat="47.72765" lon="-3.35274">
        <ele>0.62</ele>
        <time>2016-04-28T17:17:10Z</time>
      </trkpt>
      <trkpt lat="47.72762" lon="-3.35274">
        <ele>1.1</ele>
        <time>2016-04-28T17:17:22Z</time>
      </trkpt>
      <trkpt lat="47.72762" lon="-3.35274">
        <ele>1.1</ele>
        <time>2016-04-28T17:17:23Z</time>
      </trkpt>
      <trkpt lat="47.72747" lon="-3.35281">
        <ele>2.06</ele>
        <time>2016-04-28T17:17:39Z</time>
      </trkpt>
      <trkpt lat="47.72737" lon="-3.35285">
        <ele>2.06</ele>
        <time>2016-04-28T17:17:46Z</time>
      </trkpt>
      <trkpt lat="47.72731" lon="-3.35287">
        <ele>2.06</ele>
        <time>2016-04-28T17:17:50Z</time>
      </trkpt>
      <trkpt lat="47.72706" lon="-3.35294">
        <ele>1.1</ele>
        <time>2016-04-28T17:18:07Z</time>
      </trkpt>
      <trkpt lat="47.72672" lon="-3.35293">
        <ele>0.62</ele>
        <time>2016-04-28T17:18:29Z</time>
      </trkpt>
      <trkpt lat="47.72646" lon="-3.35299">
        <ele>2.06</ele>
        <time>2016-04-28T17:18:47Z</time>
      </trkpt>
      <trkpt lat="47.72621" lon="-3.35307">
        <ele>2.06</ele>
        <time>2016-04-28T17:19:05Z</time>
      </trkpt>
      <trkpt lat="47.72593" lon="-3.35305">
        <ele>2.06</ele>
        <time>2016-04-28T17:19:24Z</time>
      </trkpt>
      <trkpt lat="47.72591" lon="-3.35316">
        <ele>2.54</ele>
        <time>2016-04-28T17:19:30Z</time>
      </trkpt>
      <trkpt lat="47.72604" lon="-3.35323">
        <ele>2.54</ele>
        <time>2016-04-28T17:19:41Z</time>
      </trkpt>
      <trkpt lat="47.72606" lon="-3.35293">
        <ele>3.02</ele>
        <time>2016-04-28T17:19:54Z</time>
      </trkpt>
      <trkpt lat="47.72588" lon="-3.35272">
        <ele>2.54</ele>
        <time>2016-04-28T17:20:11Z</time>
      </trkpt>
      <trkpt lat="47.72575" lon="-3.35246">
        <ele>2.06</ele>
        <time>2016-04-28T17:20:28Z</time>
      </trkpt>
      <trkpt lat="47.72572" lon="-3.35236">
        <ele>2.54</ele>
        <time>2016-04-28T17:20:33Z</time>
      </trkpt>
      <trkpt lat="47.72569" lon="-3.35229">
        <ele>2.54</ele>
        <time>2016-04-28T17:20:37Z</time>
      </trkpt>
      <trkpt lat="47.72572" lon="-3.352">
        <ele>2.54</ele>
        <time>2016-04-28T17:20:51Z</time>
      </trkpt>
      <trkpt lat="47.72596" lon="-3.35193">
        <ele>1.58</ele>
        <time>2016-04-28T17:21:06Z</time>
      </trkpt>
      <trkpt lat="47.72614" lon="-3.35212">
        <ele>1.1</ele>
        <time>2016-04-28T17:21:23Z</time>
      </trkpt>
      <trkpt lat="47.72629" lon="-3.35232">
        <ele>0.14</ele>
        <time>2016-04-28T17:21:39Z</time>
      </trkpt>
      <trkpt lat="47.72641" lon="-3.35252">
        <ele>-0.34</ele>
        <time>2016-04-28T17:21:58Z</time>
      </trkpt>
      <trkpt lat="47.72645" lon="-3.35272">
        <ele>-0.34</ele>
        <time>2016-04-28T17:22:16Z</time>
      </trkpt>
      <trkpt lat="47.72646" lon="-3.35283">
        <ele>0.14</ele>
        <time>2016-04-28T17:22:30Z</time>
      </trkpt>
      <trkpt lat="47.7265" lon="-3.35298">
        <ele>1.58</ele>
        <time>2016-04-28T17:22:43Z</time>
      </trkpt>
      <trkpt lat="47.72644" lon="-3.35321">
        <ele>1.58</ele>
        <time>2016-04-28T17:23:03Z</time>
      </trkpt>
      <trkpt lat="47.7264" lon="-3.35322">
        <ele>2.06</ele>
        <time>2016-04-28T17:23:08Z</time>
      </trkpt>
      <trkpt lat="47.72618" lon="-3.35302">
        <ele>2.54</ele>
        <time>2016-04-28T17:23:30Z</time>
      </trkpt>
      <trkpt lat="47.72592" lon="-3.35288">
        <ele>2.54</ele>
        <time>2016-04-28T17:23:54Z</time>
      </trkpt>
      <trkpt lat="47.72576" lon="-3.35261">
        <ele>2.54</ele>
        <time>2016-04-28T17:24:12Z</time>
      </trkpt>
      <trkpt lat="47.72588" lon="-3.35229">
        <ele>2.54</ele>
        <time>2016-04-28T17:24:28Z</time>
      </trkpt>
      <trkpt lat="47.72622" lon="-3.35233">
        <ele>3.02</ele>
        <time>2016-04-28T17:24:47Z</time>
      </trkpt>
      <trkpt lat="47.72645" lon="-3.35258">
        <ele>2.54</ele>
        <time>2016-04-28T17:25:06Z</time>
      </trkpt>
      <trkpt lat="47.72654" lon="-3.35287">
        <ele>0.62</ele>
        <time>2016-04-28T17:25:24Z</time>
      </trkpt>
      <trkpt lat="47.72641" lon="-3.35319">
        <ele>1.1</ele>
        <time>2016-04-28T17:25:49Z</time>
      </trkpt>
      <trkpt lat="47.72617" lon="-3.35323">
        <ele>2.06</ele>
        <time>2016-04-28T17:26:13Z</time>
      </trkpt>
      <trkpt lat="47.72595" lon="-3.35317">
        <ele>1.58</ele>
        <time>2016-04-28T17:26:34Z</time>
      </trkpt>
      <trkpt lat="47.72582" lon="-3.35288">
        <ele>2.06</ele>
        <time>2016-04-28T17:26:50Z</time>
      </trkpt>
      <trkpt lat="47.72577" lon="-3.35259">
        <ele>1.58</ele>
        <time>2016-04-28T17:27:04Z</time>
      </trkpt>
      <trkpt lat="47.72569" lon="-3.35223">
        <ele>1.1</ele>
        <time>2016-04-28T17:27:20Z</time>
      </trkpt>
      <trkpt lat="47.72557" lon="-3.35189">
        <ele>1.58</ele>
        <time>2016-04-28T17:27:38Z</time>
      </trkpt>
      <trkpt lat="47.72546" lon="-3.35154">
        <ele>2.54</ele>
        <time>2016-04-28T17:27:59Z</time>
      </trkpt>
      <trkpt lat="47.72558" lon="-3.35125">
        <ele>3.02</ele>
        <time>2016-04-28T17:28:18Z</time>
      </trkpt>
      <trkpt lat="47.72581" lon="-3.35112">
        <ele>3.98</ele>
        <time>2016-04-28T17:28:40Z</time>
      </trkpt>
      <trkpt lat="47.7259" lon="-3.35107">
        <ele>3.5</ele>
        <time>2016-04-28T17:28:56Z</time>
      </trkpt>
      <trkpt lat="47.72603" lon="-3.35098">
        <ele>2.54</ele>
        <time>2016-04-28T17:29:12Z</time>
      </trkpt>
      <trkpt lat="47.72618" lon="-3.3509">
        <ele>3.02</ele>
        <time>2016-04-28T17:29:28Z</time>
      </trkpt>
      <trkpt lat="47.72637" lon="-3.35067">
        <ele>4.46</ele>
        <time>2016-04-28T17:29:51Z</time>
      </trkpt>
      <trkpt lat="47.72637" lon="-3.35045">
        <ele>3.5</ele>
        <time>2016-04-28T17:30:04Z</time>
      </trkpt>
      <trkpt lat="47.72618" lon="-3.35025">
        <ele>2.06</ele>
        <time>2016-04-28T17:30:23Z</time>
      </trkpt>
      <trkpt lat="47.72616" lon="-3.35024">
        <ele>2.06</ele>
        <time>2016-04-28T17:30:25Z</time>
      </trkpt>
      <trkpt lat="47.726" lon="-3.35021">
        <ele>2.06</ele>
        <time>2016-04-28T17:30:41Z</time>
      </trkpt>
      <trkpt lat="47.72599" lon="-3.35012">
        <ele>2.06</ele>
        <time>2016-04-28T17:30:54Z</time>
      </trkpt>
      <trkpt lat="47.72604" lon="-3.35016">
        <ele>2.06</ele>
        <time>2016-04-28T17:31:07Z</time>
      </trkpt>
      <trkpt lat="47.72607" lon="-3.35024">
        <ele>1.1</ele>
        <time>2016-04-28T17:31:12Z</time>
      </trkpt>
      <trkpt lat="47.72614" lon="-3.35036">
        <ele>-0.82</ele>
        <time>2016-04-28T17:31:25Z</time>
      </trkpt>
      <trkpt lat="47.72624" lon="-3.35054">
        <ele>1.1</ele>
        <time>2016-04-28T17:31:45Z</time>
      </trkpt>
      <trkpt lat="47.7263" lon="-3.35054">
        <ele>-0.34</ele>
        <time>2016-04-28T17:31:59Z</time>
      </trkpt>
      <trkpt lat="47.72634" lon="-3.3506">
        <ele>0.14</ele>
        <time>2016-04-28T17:32:17Z</time>
      </trkpt>
      <trkpt lat="47.72631" lon="-3.35071">
        <ele>0.62</ele>
        <time>2016-04-28T17:32:34Z</time>
      </trkpt>
      <trkpt lat="47.7263" lon="-3.35072">
        <ele>0.62</ele>
        <time>2016-04-28T17:32:42Z</time>
      </trkpt>
      <trkpt lat="47.72629" lon="-3.35073">
        <ele>2.06</ele>
        <time>2016-04-28T17:32:56Z</time>
      </trkpt>
      <trkpt lat="47.72629" lon="-3.35073">
        <ele>2.54</ele>
        <time>2016-04-28T17:33:00Z</time>
      </trkpt>
      <trkpt lat="47.72638" lon="-3.35058">
        <ele>1.58</ele>
        <time>2016-04-28T17:33:18Z</time>
      </trkpt>
      <trkpt lat="47.7264" lon="-3.35048">
        <ele>1.58</ele>
        <time>2016-04-28T17:33:29Z</time>
      </trkpt>
      <trkpt lat="47.72636" lon="-3.35034">
        <ele>-1.3</ele>
        <time>2016-04-28T17:33:40Z</time>
      </trkpt>
      <trkpt lat="47.72635" lon="-3.35034">
        <ele>-1.79</ele>
        <time>2016-04-28T17:33:41Z</time>
      </trkpt>
      <trkpt lat="47.72627" lon="-3.35029">
        <ele>-2.75</ele>
        <time>2016-04-28T17:33:52Z</time>
      </trkpt>
      <trkpt lat="47.72619" lon="-3.35029">
        <ele>-0.82</ele>
        <time>2016-04-28T17:34:09Z</time>
      </trkpt>
      <trkpt lat="47.72612" lon="-3.35039">
        <ele>-0.82</ele>
        <time>2016-04-28T17:34:27Z</time>
      </trkpt>
      <trkpt lat="47.72612" lon="-3.35041">
        <ele>1.58</ele>
        <time>2016-04-28T17:34:42Z</time>
      </trkpt>
      <trkpt lat="47.72611" lon="-3.35043">
        <ele>2.06</ele>
        <time>2016-04-28T17:34:55Z</time>
      </trkpt>
      <trkpt lat="47.7261" lon="-3.35043">
        <ele>2.06</ele>
        <time>2016-04-28T17:35:13Z</time>
      </trkpt>
      <trkpt lat="47.72609" lon="-3.35043">
        <ele>2.06</ele>
        <time>2016-04-28T17:35:26Z</time>
      </trkpt>
      <trkpt lat="47.72609" lon="-3.35043">
        <ele>2.06</ele>
        <time>2016-04-28T17:35:44Z</time>
      </trkpt>
      <trkpt lat="47.72607" lon="-3.35043">
        <ele>2.06</ele>
        <time>2016-04-28T17:36:00Z</time>
      </trkpt>
      <trkpt lat="47.72607" lon="-3.35043">
        <ele>2.06</ele>
        <time>2016-04-28T17:36:13Z</time>
      </trkpt>
      <trkpt lat="47.72606" lon="-3.35044">
        <ele>2.06</ele>
        <time>2016-04-28T17:36:29Z</time>
      </trkpt>
      <trkpt lat="47.72606" lon="-3.35044">
        <ele>2.06</ele>
        <time>2016-04-28T17:36:49Z</time>
      </trkpt>
      <trkpt lat="47.72606" lon="-3.35044">
        <ele>2.06</ele>
        <time>2016-04-28T17:37:02Z</time>
      </trkpt>
      <trkpt lat="47.72607" lon="-3.35044">
        <ele>2.06</ele>
        <time>2016-04-28T17:37:23Z</time>
      </trkpt>
      <trkpt lat="47.72607" lon="-3.35044">
        <ele>2.06</ele>
        <time>2016-04-28T17:37:40Z</time>
      </trkpt>
      <trkpt lat="47.72606" lon="-3.35045">
        <ele>2.06</ele>
        <time>2016-04-28T17:37:58Z</time>
      </trkpt>
      <trkpt lat="47.72607" lon="-3.35045">
        <ele>2.06</ele>
        <time>2016-04-28T17:38:12Z</time>
      </trkpt>
      <trkpt lat="47.72607" lon="-3.35047">
        <ele>1.1</ele>
        <time>2016-04-28T17:38:25Z</time>
      </trkpt>
      <trkpt lat="47.72607" lon="-3.35047">
        <ele>1.1</ele>
        <time>2016-04-28T17:38:29Z</time>
      </trkpt>
      <trkpt lat="47.72608" lon="-3.35043">
        <ele>2.06</ele>
        <time>2016-04-28T17:38:42Z</time>
      </trkpt>
      <trkpt lat="47.72607" lon="-3.35044">
        <ele>1.58</ele>
        <time>2016-04-28T17:38:57Z</time>
      </trkpt>
      <trkpt lat="47.72607" lon="-3.35044">
        <ele>1.1</ele>
        <time>2016-04-28T17:39:15Z</time>
      </trkpt>
      <trkpt lat="47.72607" lon="-3.35044">
        <ele>1.1</ele>
        <time>2016-04-28T17:39:33Z</time>
      </trkpt>
      <trkpt lat="47.72606" lon="-3.35044">
        <ele>1.1</ele>
        <time>2016-04-28T17:39:56Z</time>
      </trkpt>
      <trkpt lat="47.72606" lon="-3.35044">
        <ele>1.1</ele>
        <time>2016-04-28T17:40:15Z</time>
      </trkpt>
      <trkpt lat="47.72606" lon="-3.35044">
        <ele>1.1</ele>
        <time>2016-04-28T17:40:33Z</time>
      </trkpt>
      <trkpt lat="47.72606" lon="-3.35044">
        <ele>1.1</ele>
        <time>2016-04-28T17:40:46Z</time>
      </trkpt>
      <trkpt lat="47.72607" lon="-3.35045">
        <ele>1.1</ele>
        <time>2016-04-28T17:40:58Z</time>
      </trkpt>
    </trkseg>
  </trk>
</gpx>